Time;durP1;ratioP1;P1;durP2;ratioP2;P2;SDS_P1;SDS_P2;PMS_P1;PMS_P2;Temp;Humidity;BMP_temperature;BMP_pressure;BME280_temperature;BME280_humidity;BME280_pressure;Samples;Min_cycle;Max_cycle;Signal;HPM_P1;HPM_P2
2022/11/29 00:01:41;;;;;;;21.20;10.10;;;;;;;;;;5052687;28;20037;-80
2022/11/29 00:04:07;;;;;;;20.05;9.93;;;;;;;;;;5032574;28;20049;-81
2022/11/29 00:06:34;;;;;;;19.25;9.88;;;;;;;;;;5024329;28;20053;-81
2022/11/29 00:09:03;;;;;;;22.13;10.70;;;;;;;;;;5051250;28;20125;-82
2022/11/29 00:14:17;;;;;;;21.67;9.82;;;;;;;;;;5034453;28;20046;-81
2022/11/29 00:16:43;;;;;;;21.52;9.77;;;;;;;;;;5034634;28;20103;-81
2022/11/29 00:19:10;;;;;;;21.15;9.30;;;;;;;;;;5015725;28;20081;-82
2022/11/29 00:21:37;;;;;;;20.00;9.50;;;;;;;;;;5016381;28;20045;-83
2022/11/29 00:24:04;;;;;;;20.10;9.57;;;;;;;;;;5033601;28;20068;-83
2022/11/29 00:26:30;;;;;;;20.23;10.00;;;;;;;;;;5033473;28;20068;-82
2022/11/29 00:28:56;;;;;;;20.17;9.30;;;;;;;;;;5036861;28;20057;-80
2022/11/29 00:31:24;;;;;;;21.63;10.15;;;;;;;;;;5032720;28;20053;-82
2022/11/29 00:33:51;;;;;;;20.83;10.05;;;;;;;;;;5015521;28;20057;-81
2022/11/29 00:36:18;;;;;;;20.05;9.82;;;;;;;;;;5014666;28;20049;-81
2022/11/29 00:38:45;;;;;;;21.33;10.00;;;;;;;;;;5031684;28;20057;-82
2022/11/29 00:41:11;;;;;;;19.45;9.30;;;;;;;;;;5031228;28;20050;-79
2022/11/29 00:43:38;;;;;;;18.63;8.93;;;;;;;;;;5013829;28;20088;-81
2022/11/29 00:46:05;;;;;;;20.40;9.60;;;;;;;;;;5014006;28;20056;-80
2022/11/29 00:48:32;;;;;;;19.52;10.07;;;;;;;;;;5031965;28;20053;-81
2022/11/29 00:50:58;;;;;;;20.77;9.38;;;;;;;;;;5014269;28;20060;-82
2022/11/29 00:53:25;;;;;;;21.20;10.43;;;;;;;;;;5013174;28;20057;-79
2022/11/29 00:55:51;;;;;;;20.48;10.27;;;;;;;;;;5030605;28;20137;-82
2022/11/29 00:58:18;;;;;;;19.77;9.82;;;;;;;;;;5015116;28;20117;-81
2022/11/29 01:00:45;;;;;;;21.50;10.43;;;;;;;;;;5031797;28;20566;-80
2022/11/29 01:03:12;;;;;;;24.85;10.02;;;;;;;;;;5014561;28;20457;-80
2022/11/29 01:05:39;;;;;;;19.48;9.43;;;;;;;;;;5013672;28;20049;-79
2022/11/29 01:08:05;;;;;;;19.10;9.38;;;;;;;;;;5031319;28;20175;-80
2022/11/29 01:10:32;;;;;;;21.48;9.68;;;;;;;;;;5030724;28;20053;-80
2022/11/29 01:12:58;;;;;;;23.00;10.32;;;;;;;;;;5031038;28;20414;-80
2022/11/29 01:15:25;;;;;;;23.13;10.48;;;;;;;;;;5012812;28;20050;-79
2022/11/29 01:17:52;;;;;;;23.00;10.25;;;;;;;;;;5012806;28;20067;-79
2022/11/29 01:20:18;;;;;;;22.02;10.65;;;;;;;;;;5012609;28;20061;-81
2022/11/29 01:22:45;;;;;;;24.77;10.13;;;;;;;;;;5012617;28;20041;-81
2022/11/29 01:25:12;;;;;;;21.80;10.02;;;;;;;;;;5030234;28;20099;-81
2022/11/29 01:27:38;;;;;;;23.23;10.73;;;;;;;;;;5013206;28;20136;-81
2022/11/29 01:30:05;;;;;;;21.67;10.25;;;;;;;;;;5015913;28;20054;-78
2022/11/29 01:32:32;;;;;;;24.58;10.70;;;;;;;;;;5037395;28;20068;-81
2022/11/29 01:34:58;;;;;;;25.55;11.32;;;;;;;;;;5034481;28;20087;-80
2022/11/29 01:37:27;;;;;;;23.65;10.85;;;;;;;;;;5033147;28;20053;-79
2022/11/29 01:39:53;;;;;;;22.35;10.35;;;;;;;;;;5032067;28;20049;-81
2022/11/29 01:42:19;;;;;;;23.23;10.75;;;;;;;;;;5032473;28;20049;-81
2022/11/29 01:44:49;;;;;;;23.50;11.55;;;;;;;;;;5033027;28;20064;-83
2022/11/29 01:47:16;;;;;;;25.65;11.10;;;;;;;;;;5033159;28;20060;-81
2022/11/29 01:49:44;;;;;;;21.23;10.50;;;;;;;;;;5014799;28;20053;-80
2022/11/29 01:52:12;;;;;;;24.23;10.43;;;;;;;;;;5013719;28;20137;-83
2022/11/29 01:54:47;;;;;;;24.88;10.52;;;;;;;;;;5014042;28;20462;-80
2022/11/29 01:57:14;;;;;;;23.73;11.02;;;;;;;;;;5031886;28;20050;-80
2022/11/29 01:59:47;;;;;;;25.75;11.57;;;;;;;;;;5033867;28;20704;-82
2022/11/29 02:02:15;;;;;;;22.30;11.15;;;;;;;;;;5013834;28;20056;-78
2022/11/29 02:04:44;;;;;;;24.85;11.07;;;;;;;;;;5013240;28;20375;-80
2022/11/29 02:07:10;;;;;;;24.13;11.15;;;;;;;;;;5014603;28;20081;-81
2022/11/29 02:09:37;;;;;;;22.80;11.25;;;;;;;;;;5034622;28;20057;-81
2022/11/29 02:12:03;;;;;;;27.65;11.52;;;;;;;;;;5035883;28;20148;-80
2022/11/29 02:14:36;;;;;;;25.25;11.23;;;;;;;;;;5035709;28;20052;-80
2022/11/29 02:17:02;;;;;;;22.55;10.80;;;;;;;;;;5035074;28;20487;-81
2022/11/29 02:19:31;;;;;;;24.13;10.85;;;;;;;;;;5034655;28;20057;-80
2022/11/29 02:22:02;;;;;;;24.02;11.43;;;;;;;;;;5034591;28;20049;-82
2022/11/29 02:24:35;;;;;;;24.95;11.20;;;;;;;;;;5041625;28;20061;-78
2022/11/29 02:27:01;;;;;;;25.08;11.32;;;;;;;;;;5027853;28;20064;-81
2022/11/29 02:29:28;;;;;;;29.45;11.77;;;;;;;;;;5022273;28;20575;-78
2022/11/29 02:32:04;;;;;;;23.73;11.68;;;;;;;;;;5017216;28;20053;-80
2022/11/29 02:34:43;;;;;;;24.73;11.75;;;;;;;;;;5037623;28;20060;-79
2022/11/29 02:37:29;;;;;;;23.95;10.88;;;;;;;;;;5034553;28;20068;-79
2022/11/29 02:40:14;;;;;;;23.88;11.25;;;;;;;;;;5017376;28;20041;-80
2022/11/29 02:42:53;;;;;;;17.30;8.27;;;;;;;;;;5033228;28;20058;-79
2022/11/29 02:45:22;;;;;;;27.10;11.93;;;;;;;;;;5012395;28;20073;-80
2022/11/29 02:48:15;;;;;;;29.50;12.40;;;;;;;;;;5006308;28;20099;-80
2022/11/29 02:50:55;;;;;;;24.95;11.63;;;;;;;;;;5032398;28;20051;-80
2022/11/29 02:53:28;;;;;;;28.25;12.35;;;;;;;;;;5033251;28;20060;-80
2022/11/29 02:56:13;;;;;;;25.48;11.73;;;;;;;;;;5014778;28;20049;-81
2022/11/29 02:58:46;;;;;;;27.50;11.87;;;;;;;;;;5033372;28;20057;-80
2022/11/29 03:01:19;;;;;;;28.73;11.70;;;;;;;;;;5032539;28;20053;-80
2022/11/29 03:04:04;;;;;;;26.48;11.68;;;;;;;;;;5033814;28;20474;-80
2022/11/29 03:06:31;;;;;;;28.48;12.05;;;;;;;;;;5033303;28;20076;-79
2022/11/29 03:09:03;;;;;;;29.80;11.68;;;;;;;;;;5032748;28;20052;-80
2022/11/29 03:11:50;;;;;;;28.48;11.07;;;;;;;;;;5015039;28;20060;-79
2022/11/29 03:14:25;;;;;;;25.50;11.57;;;;;;;;;;5036858;28;20057;-80
2022/11/29 03:16:57;;;;;;;27.13;11.57;;;;;;;;;;5037824;28;20057;-79
2022/11/29 03:19:50;;;;;;;26.13;11.40;;;;;;;;;;5034771;28;20433;-77
2022/11/29 03:22:19;;;;;;;29.77;11.68;;;;;;;;;;5029660;28;20051;-81
2022/11/29 03:24:46;;;;;;;26.33;11.75;;;;;;;;;;5015814;28;20493;-79
2022/11/29 03:27:15;;;;;;;23.42;11.88;;;;;;;;;;5033380;28;20076;-81
2022/11/29 03:29:49;;;;;;;23.40;10.82;;;;;;;;;;5032669;28;20057;-79
2022/11/29 03:32:25;;;;;;;29.92;11.98;;;;;;;;;;5032001;28;20053;-79
2022/11/29 03:35:04;;;;;;;25.67;11.90;;;;;;;;;;5015338;28;20053;-79
2022/11/29 03:37:51;;;;;;;25.67;11.35;;;;;;;;;;5032748;28;20049;-82
2022/11/29 03:40:25;;;;;;;30.08;11.88;;;;;;;;;;5021283;28;20061;-79
2022/11/29 03:42:57;;;;;;;24.85;11.40;;;;;;;;;;5029346;28;20053;-81
2022/11/29 03:45:27;;;;;;;31.65;12.15;;;;;;;;;;5026117;28;20049;-81
2022/11/29 03:48:09;;;;;;;25.35;11.07;;;;;;;;;;5044734;28;20079;-79
2022/11/29 03:50:37;;;;;;;27.77;12.07;;;;;;;;;;5038197;28;20055;-79
2022/11/29 03:53:13;;;;;;;26.98;12.07;;;;;;;;;;5017715;28;20045;-81
2022/11/29 03:55:53;;;;;;;29.45;12.00;;;;;;;;;;5035356;28;20053;-79
2022/11/29 03:58:31;;;;;;;26.88;12.25;;;;;;;;;;5022795;28;20509;-80
2022/11/29 04:01:03;;;;;;;25.35;11.02;;;;;;;;;;5021171;28;20073;-78
2022/11/29 04:03:29;;;;;;;27.42;11.48;;;;;;;;;;5017156;28;20053;-82
2022/11/29 04:06:19;;;;;;;22.50;10.35;;;;;;;;;;5033741;28;20045;-82
2022/11/29 04:08:56;;;;;;;24.70;10.95;;;;;;;;;;5003942;28;20100;-79
2022/11/29 04:11:25;;;;;;;26.60;11.25;;;;;;;;;;5019496;28;20505;-83
2022/11/29 04:13:52;;;;;;;26.95;11.98;;;;;;;;;;5034756;28;20133;-83
2022/11/29 04:16:21;;;;;;;25.08;11.60;;;;;;;;;;5015400;28;20042;-82
2022/11/29 04:19:03;;;;;;;25.65;11.07;;;;;;;;;;5034852;28;20223;-80
2022/11/29 04:21:29;;;;;;;28.42;12.00;;;;;;;;;;5008033;28;20056;-79
2022/11/29 04:24:12;;;;;;;28.60;11.45;;;;;;;;;;5005506;28;20653;-79
2022/11/29 04:26:48;;;;;;;26.23;12.43;;;;;;;;;;5031301;28;20049;-78
2022/11/29 04:29:17;;;;;;;24.45;11.52;;;;;;;;;;5016268;28;20487;-79
2022/11/29 04:31:50;;;;;;;25.23;11.65;;;;;;;;;;5008651;28;20050;-81
2022/11/29 04:34:25;;;;;;;29.02;12.27;;;;;;;;;;5017612;28;20049;-80
2022/11/29 04:36:57;;;;;;;28.38;12.55;;;;;;;;;;5014667;28;20057;-79
2022/11/29 04:39:42;;;;;;;28.85;12.07;;;;;;;;;;5011669;28;20050;-81
2022/11/29 04:42:09;;;;;;;25.58;11.85;;;;;;;;;;4995160;28;20046;-79
2022/11/29 04:44:37;;;;;;;29.10;12.40;;;;;;;;;;4996877;28;20098;-79
2022/11/29 04:47:18;;;;;;;26.85;12.82;;;;;;;;;;5015240;28;20063;-80
2022/11/29 04:49:51;;;;;;;26.70;11.98;;;;;;;;;;5031139;28;20054;-78
2022/11/29 04:52:17;;;;;;;28.50;12.23;;;;;;;;;;5031600;28;20053;-80
2022/11/29 04:54:54;;;;;;;27.15;12.35;;;;;;;;;;5031811;28;20064;-78
2022/11/29 04:57:22;;;;;;;26.20;12.00;;;;;;;;;;5032491;28;20152;-81
2022/11/29 05:00:08;;;;;;;26.10;12.60;;;;;;;;;;5025872;28;20047;-81
2022/11/29 05:02:35;;;;;;;30.88;12.45;;;;;;;;;;5024183;28;20053;-79
2022/11/29 05:05:13;;;;;;;27.40;12.13;;;;;;;;;;4994388;28;20068;-80
2022/11/29 05:07:40;;;;;;;27.42;12.02;;;;;;;;;;4993442;28;20054;-79
2022/11/29 05:10:42;;;;;;;25.38;11.68;;;;;;;;;;4992890;28;20130;-80
2022/11/29 05:13:12;;;;;;;25.67;11.93;;;;;;;;;;4895880;29;20048;-80
2022/11/29 05:15:38;;;;;;;25.83;11.70;;;;;;;;;;4992953;28;20052;-81
2022/11/29 05:18:22;;;;;;;29.15;12.38;;;;;;;;;;4993366;28;20042;-79
2022/11/29 05:21:08;;;;;;;29.20;12.23;;;;;;;;;;5010295;28;20061;-79
2022/11/29 05:23:47;;;;;;;30.52;12.80;;;;;;;;;;5010641;28;20069;-80
2022/11/29 05:26:13;;;;;;;26.63;12.45;;;;;;;;;;5010566;28;20042;-80
2022/11/29 05:28:39;;;;;;;28.83;12.52;;;;;;;;;;5023959;28;20045;-80
2022/11/29 05:31:15;;;;;;;27.92;12.65;;;;;;;;;;5008066;28;20054;-81
2022/11/29 05:33:41;;;;;;;;;;;;;;;;;;5011148;28;20564;-81
2022/11/29 05:36:10;;;;;;;27.00;12.15;;;;;;;;;;5011184;28;19921;-81
2022/11/29 05:38:51;;;;;;;28.45;12.90;;;;;;;;;;5017696;28;20038;-77
2022/11/29 05:41:36;;;;;;;28.95;12.00;;;;;;;;;;5020459;28;20061;-79
2022/11/29 05:44:08;;;;;;;31.40;14.03;;;;;;;;;;5016329;28;20053;-80
2022/11/29 05:46:55;;;;;;;29.42;12.38;;;;;;;;;;4997334;28;20057;-80
2022/11/29 05:49:31;;;;;;;27.23;11.93;;;;;;;;;;4997295;28;20057;-79
2022/11/29 05:51:57;;;;;;;;;;;;;;;;;;5014307;28;20053;-80
2022/11/29 05:54:29;;;;;;;26.92;11.73;;;;;;;;;;5009715;28;19928;-79
2022/11/29 05:56:58;;;;;;;26.23;11.77;;;;;;;;;;5036431;28;20239;-78
2022/11/29 05:59:33;;;;;;;30.58;12.57;;;;;;;;;;5034573;28;20105;-77
2022/11/29 06:02:11;;;;;;;26.88;11.68;;;;;;;;;;5046805;28;20056;-83
2022/11/29 06:04:38;;;;;;;29.30;13.10;;;;;;;;;;5027522;28;20160;-83
2022/11/29 06:07:16;;;;;;;28.95;12.60;;;;;;;;;;5033349;28;20053;-80
2022/11/29 06:09:59;;;;;;;32.17;11.93;;;;;;;;;;5045566;28;20115;-78
2022/11/29 06:12:30;;;;;;;27.90;12.10;;;;;;;;;;5045179;28;20045;-79
2022/11/29 06:15:05;;;;;;;29.38;12.93;;;;;;;;;;5025875;28;20153;-81
2022/11/29 06:17:51;;;;;;;26.65;12.70;;;;;;;;;;5038208;28;20081;-79
2022/11/29 06:20:18;;;;;;;;;;;;;;;;;;5045109;28;20445;-77
2022/11/29 06:23:03;;;;;;;28.38;12.25;;;;;;;;;;5033577;28;19928;-79
2022/11/29 06:25:40;;;;;;;23.77;11.60;;;;;;;;;;5034220;28;20184;-80
2022/11/29 06:28:26;;;;;;;26.45;12.50;;;;;;;;;;5036665;28;20490;-80
2022/11/29 06:31:05;;;;;;;19.95;8.55;;;;;;;;;;5036755;28;20057;-81
2022/11/29 06:33:34;;;;;;;24.40;11.95;;;;;;;;;;5037395;28;20049;-82
2022/11/29 06:36:10;;;;;;;25.15;11.93;;;;;;;;;;5037642;28;20045;-81
2022/11/29 06:38:36;;;;;;;22.77;11.10;;;;;;;;;;5037733;28;20045;-80
2022/11/29 06:41:03;;;;;;;26.40;12.02;;;;;;;;;;5037161;28;20046;-80
2022/11/29 06:43:30;;;;;;;23.73;11.77;;;;;;;;;;5036399;28;20045;-79
2022/11/29 06:46:02;;;;;;;26.27;12.10;;;;;;;;;;5036898;28;20640;-80
2022/11/29 06:48:33;;;;;;;30.42;12.75;;;;;;;;;;5037456;28;20399;-81
2022/11/29 06:51:07;;;;;;;24.25;11.75;;;;;;;;;;5018675;28;20206;-79
2022/11/29 06:53:47;;;;;;;25.90;11.73;;;;;;;;;;5018240;28;20057;-79
2022/11/29 06:56:32;;;;;;;23.10;11.55;;;;;;;;;;5037222;28;20473;-80
2022/11/29 06:59:17;;;;;;;27.40;11.63;;;;;;;;;;5029586;28;20247;-80
2022/11/29 07:01:44;;;;;;;26.50;11.90;;;;;;;;;;5033436;28;20299;-78
2022/11/29 07:04:30;;;;;;;28.75;12.32;;;;;;;;;;5035101;28;20083;-79
2022/11/29 07:06:56;;;;;;;25.20;11.50;;;;;;;;;;5041102;28;20056;-79
2022/11/29 07:09:26;;;;;;;24.25;11.70;;;;;;;;;;5024088;28;20387;-79
2022/11/29 07:11:53;;;;;;;23.17;11.38;;;;;;;;;;5035163;28;20045;-80
2022/11/29 07:14:19;;;;;;;24.70;11.45;;;;;;;;;;5016557;28;20053;-79
2022/11/29 07:17:00;;;;;;;26.23;11.80;;;;;;;;;;5022710;28;20041;-79
2022/11/29 07:19:40;;;;;;;24.77;11.55;;;;;;;;;;5022087;28;20053;-78
2022/11/29 07:22:25;;;;;;;24.92;11.75;;;;;;;;;;5035624;28;20224;-78
2022/11/29 07:24:57;;;;;;;27.33;11.48;;;;;;;;;;5040148;28;20137;-78
2022/11/29 07:27:32;;;;;;;26.00;11.70;;;;;;;;;;5036076;28;20045;-81
2022/11/29 07:29:58;;;;;;;25.35;11.63;;;;;;;;;;5038450;28;20052;-77
2022/11/29 07:32:43;;;;;;;20.30;11.27;;;;;;;;;;5013552;28;20057;-79
2022/11/29 07:35:20;;;;;;;20.10;11.02;;;;;;;;;;4998156;28;20086;-83
2022/11/29 07:38:10;;;;;;;23.08;11.07;;;;;;;;;;4997379;28;20053;-79
2022/11/29 07:40:41;;;;;;;22.08;10.93;;;;;;;;;;5018806;28;20068;-79
2022/11/29 07:43:26;;;;;;;20.38;10.68;;;;;;;;;;5000651;28;20046;-79
2022/11/29 07:45:53;;;;;;;19.37;8.60;;;;;;;;;;5017962;28;20065;-80
2022/11/29 07:48:20;;;;;;;22.38;11.43;;;;;;;;;;4999567;28;20292;-80
2022/11/29 07:50:47;;;;;;;29.42;12.55;;;;;;;;;;4998061;28;20054;-80
2022/11/29 07:53:17;;;;;;;22.75;10.82;;;;;;;;;;5015465;28;20065;-80
2022/11/29 07:55:44;;;;;;;22.23;11.05;;;;;;;;;;5014631;28;20050;-80
2022/11/29 07:58:11;;;;;;;21.80;11.00;;;;;;;;;;5016470;28;20052;-77
2022/11/29 08:00:38;;;;;;;23.88;11.15;;;;;;;;;;4999004;28;20061;-79
2022/11/29 08:03:04;;;;;;;22.45;11.30;;;;;;;;;;4996951;28;20053;-79
2022/11/29 08:05:31;;;;;;;22.83;10.85;;;;;;;;;;5012518;28;20057;-81
2022/11/29 08:07:58;;;;;;;27.23;11.90;;;;;;;;;;5011847;28;20062;-80
2022/11/29 08:10:24;;;;;;;30.00;11.95;;;;;;;;;;5012070;28;20073;-80
2022/11/29 08:12:51;;;;;;;24.85;12.05;;;;;;;;;;5011742;28;20498;-79
2022/11/29 08:15:18;;;;;;;27.27;12.15;;;;;;;;;;5011735;28;20079;-80
2022/11/29 08:17:45;;;;;;;27.58;11.60;;;;;;;;;;4996594;28;20058;-77
2022/11/29 08:20:12;;;;;;;22.65;11.65;;;;;;;;;;5019086;28;20057;-80
2022/11/29 08:22:38;;;;;;;21.90;10.93;;;;;;;;;;5032531;28;20064;-80
2022/11/29 08:25:06;;;;;;;21.38;10.80;;;;;;;;;;5031077;28;20060;-79
2022/11/29 08:27:33;;;;;;;23.08;11.63;;;;;;;;;;5014037;28;20057;-80
2022/11/29 08:29:59;;;;;;;21.98;11.48;;;;;;;;;;5017070;28;20540;-80
2022/11/29 08:32:26;;;;;;;21.50;11.00;;;;;;;;;;5030501;28;20057;-81
2022/11/29 08:34:52;;;;;;;20.02;10.93;;;;;;;;;;5029957;28;20429;-78
2022/11/29 08:37:19;;;;;;;22.17;10.80;;;;;;;;;;5031181;28;20042;-80
2022/11/29 08:39:45;;;;;;;20.48;10.52;;;;;;;;;;5031019;28;20049;-80
2022/11/29 08:42:11;;;;;;;22.70;10.88;;;;;;;;;;5030864;28;20048;-79
2022/11/29 08:44:38;;;;;;;22.67;10.82;;;;;;;;;;5012825;28;20132;-79
2022/11/29 08:50:02;;;;;;;20.02;10.55;;;;;;;;;;5028852;28;20064;-81
2022/11/29 08:55:15;;;;;;;19.50;10.13;;;;;;;;;;5029995;28;20125;-79
2022/11/29 08:57:42;;;;;;;22.20;10.82;;;;;;;;;;5031055;28;20057;-78
2022/11/29 09:00:08;;;;;;;20.23;10.38;;;;;;;;;;5040592;28;20041;-79
2022/11/29 09:02:35;;;;;;;19.27;10.43;;;;;;;;;;5012131;28;20064;-79
2022/11/29 09:05:02;;;;;;;19.70;9.63;;;;;;;;;;5029191;28;20569;-81
2022/11/29 09:07:28;;;;;;;18.25;9.65;;;;;;;;;;5029450;28;20057;-80
2022/11/29 09:09:55;;;;;;;19.50;9.52;;;;;;;;;;5011599;28;20053;-80
2022/11/29 09:12:21;;;;;;;16.23;9.35;;;;;;;;;;5029075;28;20409;-80
2022/11/29 09:14:48;;;;;;;18.85;9.30;;;;;;;;;;5012064;28;20049;-80
2022/11/29 09:17:14;;;;;;;16.73;8.80;;;;;;;;;;5031426;28;20053;-80
2022/11/29 09:19:41;;;;;;;27.40;9.48;;;;;;;;;;5034260;28;20099;-80
2022/11/29 09:22:07;;;;;;;16.05;8.68;;;;;;;;;;5040113;28;20582;-78
2022/11/29 09:24:33;;;;;;;19.35;8.75;;;;;;;;;;5023235;28;20060;-79
2022/11/29 09:27:00;;;;;;;20.77;9.02;;;;;;;;;;5046323;28;20429;-80
2022/11/29 09:29:26;;;;;;;15.25;8.25;;;;;;;;;;5020314;28;20049;-80
2022/11/29 09:31:53;;;;;;;16.00;8.55;;;;;;;;;;5033373;28;20053;-80
2022/11/29 09:34:20;;;;;;;18.92;8.77;;;;;;;;;;5032907;28;20060;-79
2022/11/29 09:36:47;;;;;;;17.70;8.13;;;;;;;;;;5015393;28;20132;-80
2022/11/29 09:39:13;;;;;;;16.17;8.73;;;;;;;;;;5032711;28;20045;-79
2022/11/29 09:41:59;;;;;;;16.13;7.93;;;;;;;;;;5033276;28;20054;-80
2022/11/29 09:44:28;;;;;;;15.57;7.22;;;;;;;;;;5033406;28;20058;-80
2022/11/29 09:46:54;;;;;;;12.90;6.82;;;;;;;;;;5033707;28;20453;-78
2022/11/29 09:49:30;;;;;;;12.60;7.15;;;;;;;;;;5016319;28;20473;-81
2022/11/29 09:52:15;;;;;;;13.75;7.18;;;;;;;;;;5016231;28;20116;-79
2022/11/29 09:55:00;;;;;;;13.10;6.85;;;;;;;;;;5040592;28;20060;-77
2022/11/29 09:57:27;;;;;;;13.75;7.38;;;;;;;;;;5023097;28;20073;-79
2022/11/29 09:59:56;;;;;;;15.45;7.65;;;;;;;;;;5022998;28;20144;-78
2022/11/29 10:02:35;;;;;;;12.32;7.15;;;;;;;;;;5035088;28;20042;-80
2022/11/29 10:05:07;;;;;;;15.73;7.55;;;;;;;;;;5033320;28;20055;-79
2022/11/29 10:07:41;;;;;;;12.35;6.88;;;;;;;;;;5033758;28;20059;-80
2022/11/29 10:10:13;;;;;;;13.57;7.22;;;;;;;;;;5033736;28;20104;-81
2022/11/29 10:12:46;;;;;;;13.27;6.88;;;;;;;;;;5032337;28;20483;-80
2022/11/29 10:15:18;;;;;;;9.95;6.30;;;;;;;;;;5015682;28;20064;-81
2022/11/29 10:17:48;;;;;;;12.68;6.85;;;;;;;;;;5016605;28;20494;-79
2022/11/29 10:20:14;;;;;;;13.48;6.82;;;;;;;;;;5014707;28;20053;-78
2022/11/29 10:22:48;;;;;;;11.88;6.75;;;;;;;;;;5032970;28;20140;-81
2022/11/29 10:25:18;;;;;;;11.30;6.47;;;;;;;;;;5032297;28;20049;-80
2022/11/29 10:27:44;;;;;;;11.05;6.53;;;;;;;;;;5015437;28;20049;-79
2022/11/29 10:30:12;;;;;;;12.95;6.53;;;;;;;;;;5033702;28;20064;-79
2022/11/29 10:32:38;;;;;;;12.57;6.55;;;;;;;;;;5014281;28;20128;-81
2022/11/29 10:35:11;;;;;;;10.73;6.32;;;;;;;;;;5031840;28;20053;-80
2022/11/29 10:37:38;;;;;;;11.23;6.32;;;;;;;;;;5014510;28;20064;-80
2022/11/29 10:40:09;;;;;;;10.25;5.95;;;;;;;;;;5030857;28;20057;-77
2022/11/29 10:42:48;;;;;;;11.80;6.20;;;;;;;;;;5045833;28;20060;-80
2022/11/29 10:45:24;;;;;;;12.38;6.90;;;;;;;;;;5031304;28;20072;-80
2022/11/29 10:47:52;;;;;;;9.05;5.38;;;;;;;;;;5032809;28;20620;-79
2022/11/29 10:50:21;;;;;;;13.40;6.18;;;;;;;;;;5017716;28;20510;-78
2022/11/29 10:52:47;;;;;;;11.27;6.20;;;;;;;;;;5037898;28;20049;-79
2022/11/29 10:55:14;;;;;;;11.25;5.72;;;;;;;;;;5039642;28;20053;-77
2022/11/29 10:58:00;;;;;;;10.73;5.82;;;;;;;;;;5042578;28;20056;-81
2022/11/29 11:00:27;;;;;;;10.85;5.88;;;;;;;;;;5033144;28;20045;-81
2022/11/29 11:02:53;;;;;;;9.50;5.43;;;;;;;;;;5032943;28;20056;-80
2022/11/29 11:05:23;;;;;;;9.40;5.43;;;;;;;;;;5014557;28;20060;-82
2022/11/29 11:07:56;;;;;;;9.07;5.40;;;;;;;;;;5031888;28;20041;-80
2022/11/29 11:10:26;;;;;;;10.70;5.30;;;;;;;;;;5032390;28;20143;-81
2022/11/29 11:13:06;;;;;;;11.40;5.13;;;;;;;;;;5014451;28;20056;-82
2022/11/29 11:15:33;;;;;;;9.85;5.30;;;;;;;;;;5014075;28;20045;-81
2022/11/29 11:18:03;;;;;;;9.48;4.80;;;;;;;;;;5032839;28;20042;-82
2022/11/29 11:20:38;;;;;;;10.63;5.35;;;;;;;;;;5031080;28;20053;-80
2022/11/29 11:23:25;;;;;;;7.03;3.92;;;;;;;;;;5030171;28;20053;-80
2022/11/29 11:25:58;;;;;;;9.07;5.03;;;;;;;;;;5012819;28;20045;-80
2022/11/29 11:28:25;;;;;;;8.25;4.50;;;;;;;;;;5040358;28;20033;-77
2022/11/29 11:31:03;;;;;;;8.80;4.70;;;;;;;;;;5038916;28;20057;-81
2022/11/29 11:33:30;;;;;;;9.55;5.22;;;;;;;;;;5031043;28;20111;-81
2022/11/29 11:36:05;;;;;;;9.10;4.30;;;;;;;;;;5031169;28;20053;-79
2022/11/29 11:38:33;;;;;;;7.90;4.40;;;;;;;;;;5030570;28;20136;-80
2022/11/29 11:41:04;;;;;;;6.97;4.20;;;;;;;;;;5013667;28;20177;-82
2022/11/29 11:43:31;;;;;;;8.20;4.28;;;;;;;;;;5032164;28;20311;-79
2022/11/29 11:45:57;;;;;;;7.05;4.18;;;;;;;;;;5033239;28;20110;-82
2022/11/29 11:48:23;;;;;;;10.32;5.03;;;;;;;;;;5036079;28;20045;-80
2022/11/29 11:50:51;;;;;;;7.00;4.13;;;;;;;;;;5032765;28;20057;-80
2022/11/29 11:53:18;;;;;;;8.77;4.63;;;;;;;;;;5032094;28;20107;-79
2022/11/29 11:55:53;;;;;;;7.75;4.25;;;;;;;;;;5035702;28;20423;-82
2022/11/29 11:58:27;;;;;;;9.23;5.07;;;;;;;;;;5018661;28;20046;-82
2022/11/29 12:00:53;;;;;;;8.57;4.90;;;;;;;;;;5018148;28;20053;-80
2022/11/29 12:03:29;;;;;;;10.50;4.75;;;;;;;;;;5015586;28;20537;-80
2022/11/29 12:06:10;;;;;;;8.65;4.80;;;;;;;;;;5014054;28;20494;-81
2022/11/29 12:08:37;;;;;;;8.13;4.28;;;;;;;;;;5014681;28;20118;-79
2022/11/29 12:11:06;;;;;;;7.78;4.50;;;;;;;;;;5013999;28;20450;-82
2022/11/29 12:13:34;;;;;;;9.43;5.25;;;;;;;;;;5014151;28;20056;-80
2022/11/29 12:16:04;;;;;;;8.70;4.30;;;;;;;;;;5014333;28;20052;-79
2022/11/29 12:18:34;;;;;;;7.88;4.60;;;;;;;;;;5034293;28;20049;-80
2022/11/29 12:21:00;;;;;;;9.00;4.80;;;;;;;;;;5017615;28;20049;-80
2022/11/29 12:23:29;;;;;;;8.95;4.70;;;;;;;;;;5029974;28;20046;-80
2022/11/29 12:26:04;;;;;;;8.93;4.43;;;;;;;;;;5012066;28;20045;-80
2022/11/29 12:28:31;;;;;;;17.23;4.90;;;;;;;;;;5033906;28;20114;-81
2022/11/29 12:31:10;;;;;;;8.40;4.75;;;;;;;;;;5011967;28;20057;-79
2022/11/29 12:33:55;;;;;;;7.60;4.38;;;;;;;;;;5030337;28;20457;-82
2022/11/29 12:36:36;;;;;;;8.38;4.32;;;;;;;;;;5011924;28;20060;-80
2022/11/29 12:39:12;;;;;;;7.72;4.25;;;;;;;;;;5032554;28;20057;-81
2022/11/29 12:41:38;;;;;;;;;;;;;;;;;;5015979;28;20045;-80
2022/11/29 12:44:19;;;;;;;11.30;4.72;;;;;;;;;;5031724;28;19921;-81
2022/11/29 12:47:04;;;;;;;7.40;4.47;;;;;;;;;;5012927;28;20060;-79
2022/11/29 12:50:03;;;;;;;7.88;4.53;;;;;;;;;;5015662;28;20425;-80
2022/11/29 12:52:33;;;;;;;8.48;4.47;;;;;;;;;;5012093;28;20049;-81
2022/11/29 12:55:16;;;;;;;8.73;4.38;;;;;;;;;;5030072;28;20045;-79
2022/11/29 12:57:45;;;;;;;8.15;4.45;;;;;;;;;;5029840;28;20498;-79
2022/11/29 13:00:13;;;;;;;8.25;4.00;;;;;;;;;;5012262;28;20439;-82
2022/11/29 13:02:51;;;;;;;10.10;4.57;;;;;;;;;;5030394;28;20529;-81
2022/11/29 13:05:17;;;;;;;7.47;3.92;;;;;;;;;;5012984;28;20049;-81
2022/11/29 13:07:50;;;;;;;8.93;4.13;;;;;;;;;;5030174;28;20069;-80
2022/11/29 13:10:31;;;;;;;7.88;4.35;;;;;;;;;;5012687;28;20068;-81
2022/11/29 13:13:00;;;;;;;7.82;4.38;;;;;;;;;;5030645;28;20046;-81
2022/11/29 13:15:30;;;;;;;9.30;4.65;;;;;;;;;;5030969;28;20068;-82
2022/11/29 13:17:56;;;;;;;7.32;4.45;;;;;;;;;;5014895;28;20053;-80
2022/11/29 13:20:23;;;;;;;8.95;4.82;;;;;;;;;;5028975;28;20498;-81
2022/11/29 13:22:56;;;;;;;9.63;4.88;;;;;;;;;;5028522;28;20061;-83
2022/11/29 13:25:25;;;;;;;8.73;4.50;;;;;;;;;;5012091;28;20533;-79
2022/11/29 13:28:03;;;;;;;6.28;3.85;;;;;;;;;;5031903;28;20050;-83
2022/11/29 13:30:30;;;;;;;9.07;4.40;;;;;;;;;;5021958;28;20050;-82
2022/11/29 13:33:18;;;;;;;8.63;4.35;;;;;;;;;;5012381;28;20076;-81
2022/11/29 13:35:48;;;;;;;7.75;4.45;;;;;;;;;;5012097;28;20057;-81
2022/11/29 13:38:29;;;;;;;12.02;4.60;;;;;;;;;;5011602;28;20053;-81
2022/11/29 13:41:01;;;;;;;8.15;4.30;;;;;;;;;;5029828;28;20057;-80
2022/11/29 13:43:39;;;;;;;7.10;4.07;;;;;;;;;;5037858;28;20553;-78
2022/11/29 13:46:09;;;;;;;10.18;4.85;;;;;;;;;;5039976;28;20053;-79
2022/11/29 13:48:51;;;;;;;7.10;4.30;;;;;;;;;;5039371;28;20046;-82
2022/11/29 13:51:28;;;;;;;6.95;4.32;;;;;;;;;;5013074;28;20064;-80
2022/11/29 13:53:56;;;;;;;7.82;4.50;;;;;;;;;;5012453;28;20100;-84
2022/11/29 13:56:25;;;;;;;8.73;4.68;;;;;;;;;;5016900;28;20049;-80
2022/11/29 13:58:53;;;;;;;9.07;4.82;;;;;;;;;;5013507;28;20136;-80
2022/11/29 14:01:20;;;;;;;8.70;4.50;;;;;;;;;;5014145;28;20053;-81
2022/11/29 14:04:07;;;;;;;9.65;4.82;;;;;;;;;;5014780;28;20504;-79
2022/11/29 14:06:36;;;;;;;10.32;6.03;;;;;;;;;;4991849;28;20048;-80
2022/11/29 14:09:12;;;;;;;14.55;5.40;;;;;;;;;;5012638;28;20072;-80
2022/11/29 14:11:49;;;;;;;9.18;5.18;;;;;;;;;;5022305;28;20088;-80
2022/11/29 14:14:15;;;;;;;11.10;5.00;;;;;;;;;;5001858;28;20133;-79
2022/11/29 14:16:41;;;;;;;8.25;4.43;;;;;;;;;;5003104;28;20045;-80
2022/11/29 14:19:08;;;;;;;10.40;4.95;;;;;;;;;;5023863;28;20052;-82
2022/11/29 14:21:53;;;;;;;9.77;4.68;;;;;;;;;;5004725;28;20065;-82
2022/11/29 14:24:35;;;;;;;12.37;5.07;;;;;;;;;;5024070;28;20050;-82
2022/11/29 14:27:04;;;;;;;11.88;5.47;;;;;;;;;;5004578;28;20056;-82
2022/11/29 14:29:46;;;;;;;11.73;5.47;;;;;;;;;;5033241;28;20053;-79
2022/11/29 14:32:25;;;;;;;11.05;5.68;;;;;;;;;;5044902;28;20101;-79
2022/11/29 14:35:09;;;;;;;12.70;5.53;;;;;;;;;;5022518;28;20042;-80
2022/11/29 14:37:54;;;;;;;9.77;5.55;;;;;;;;;;5025127;28;20048;-77
2022/11/29 14:40:33;;;;;;;14.10;5.38;;;;;;;;;;5022512;28;20034;-79
2022/11/29 14:43:01;;;;;;;13.40;5.70;;;;;;;;;;5017374;28;20053;-81
2022/11/29 14:45:29;;;;;;;10.15;5.35;;;;;;;;;;5023911;28;20042;-83
2022/11/29 14:47:56;;;;;;;9.13;5.22;;;;;;;;;;5024178;28;20041;-81
2022/11/29 14:50:28;;;;;;;10.95;6.03;;;;;;;;;;5023849;28;20057;-83
2022/11/29 14:52:55;;;;;;;12.02;5.90;;;;;;;;;;5023408;28;20125;-81
2022/11/29 14:55:24;;;;;;;13.95;6.30;;;;;;;;;;5007471;28;20053;-81
2022/11/29 14:57:56;;;;;;;13.13;6.38;;;;;;;;;;5011628;28;20050;-79
2022/11/29 15:00:25;;;;;;;10.98;5.75;;;;;;;;;;5017071;28;20049;-80
2022/11/29 15:02:57;;;;;;;11.88;6.20;;;;;;;;;;4997389;28;20061;-79